Mc Veytown, Pennsylvania
Current Conditions -  °F | °C
As of 3:35 AM on Friday 19 Dec 2014 (Local Time) from KUNV Reporting Station
Overcast Overcast  
Wind Chill: 23°   Ceiling: 1800
Heat Index: 30°   Visibility: 10mi
Dew Point: 24°   Wind: 7mph
Humidity: 79%   Direction: 270°W
Pressure: 30.05"   Gusts: NA
Location:  40.5138°N, 77.7384°W
Report Text: KUNV 190835Z AUTO 27006KT 10SM OVC018 M01/M04 A3005 RMK AO2 T10101043
Loading
Personal Weather Stations






























Interactive Weather Map New forecast layout! Learn more

10-Day Weather Forecast

Advertisements
Track Severe Weather on mobile